KHEZ/HEZ METAR and TAF weather

Enter ICAO airport designator
Station Type Date Time Source
KHEZ METAR 2019/04/18 09:56 UTC NOAA

KHEZ 180956Z AUTO 16013KT 10SM BKN015 OVC024 20/18 A2975 RMK AO2 SLP077 T02000178


Station Type Date Time Source
KHEZ Decoded METAR 2019/04/18 09:56 UTC NOAA

Natchez, Hardy-Anders Field Natchez-Adams County Airport, MS, United States (KHEZ) 31-37N 091-18W
Apr 18, 2019 - 05:56 AM EDT / 2019.04.18 0956 UTC
Wind: from the SSE (160 degrees) at 15 MPH (13 KT):0
Visibility: 10 mile(s):0
Sky conditions: overcast
Temperature: 68.0 F (20.0 C)
Dew Point: 64.0 F (17.8 C)
Relative Humidity: 87%
Pressure (altimeter): 29.75 in. Hg (1007 hPa)
ob: KHEZ 180956Z AUTO 16013KT 10SM BKN015 OVC024 20/18 A2975 RMK AO2 SLP077 T02000178
cycle: 10

Station Type Date Time Source
KHEZ TAF UTC NOAA

Error!

Example: see airport list